<?xml version="1.0" encoding="UTF-8" standalone="no" ?>
<gpx xmlns="http://www.topografix.com/GPX/1/1" xmlns:xsi="http://www.w3.org/2001/XMLSchema-instance" xsi:schemaLocation="http://www.topografix.com/GPX/1/1 http://www.topografix.com/GPX/1/1/gpx.xsd" version="1.1" creator="VisuGPX - https://www.visugpx.com">
  <metadata>
    <name>YERRES - Bois et Parcs</name>
    <desc><![CDATA[Bois de la Grange ( Yerres ) avec J-C GRENE]]></desc>
  </metadata>
  <trk>
    <name><![CDATA[--Boissy-Saint-Léger-- OR-5445894:Bois de la Grange]]></name>
    <trkseg>
      <trkpt lat="48.73215" lon="2.50866">
        <ele>96</ele>
        <time>2015-11-10T16:31:56Z</time>
      </trkpt>
      <trkpt lat="48.73268" lon="2.50884">
        <ele>97</ele>
        <time>2015-11-10T16:33:56Z</time>
      </trkpt>
      <trkpt lat="48.73343" lon="2.5091">
        <ele>98</ele>
        <time>2015-11-10T16:35:56Z</time>
      </trkpt>
      <trkpt lat="48.73405" lon="2.50934">
        <ele>98</ele>
        <time>2015-11-10T16:37:56Z</time>
      </trkpt>
      <trkpt lat="48.73464" lon="2.50961">
        <ele>99</ele>
        <time>2015-11-10T16:39:56Z</time>
      </trkpt>
      <trkpt lat="48.7348" lon="2.51003">
        <ele>99</ele>
        <time>2015-11-10T16:41:56Z</time>
      </trkpt>
      <trkpt lat="48.7363" lon="2.50858">
        <ele>99</ele>
        <time>2015-11-10T16:43:56Z</time>
      </trkpt>
      <trkpt lat="48.73693" lon="2.50858">
        <ele>99</ele>
        <time>2015-11-10T16:45:56Z</time>
      </trkpt>
      <trkpt lat="48.73704" lon="2.50864">
        <ele>99</ele>
        <time>2015-11-10T16:47:56Z</time>
      </trkpt>
      <trkpt lat="48.73757" lon="2.50886">
        <ele>99</ele>
        <time>2015-11-10T16:49:56Z</time>
      </trkpt>
      <trkpt lat="48.73828" lon="2.50919">
        <ele>98</ele>
        <time>2015-11-10T16:51:56Z</time>
      </trkpt>
      <trkpt lat="48.73868" lon="2.50933">
        <ele>98</ele>
        <time>2015-11-10T16:53:56Z</time>
      </trkpt>
      <trkpt lat="48.73885" lon="2.50942">
        <ele>98</ele>
        <time>2015-11-10T16:55:56Z</time>
      </trkpt>
      <trkpt lat="48.73924" lon="2.50968">
        <ele>96</ele>
        <time>2015-11-10T16:57:56Z</time>
      </trkpt>
      <trkpt lat="48.73947" lon="2.5098">
        <ele>94</ele>
        <time>2015-11-10T16:59:56Z</time>
      </trkpt>
      <trkpt lat="48.7397" lon="2.50989">
        <ele>93</ele>
        <time>2015-11-10T17:01:56Z</time>
      </trkpt>
      <trkpt lat="48.74011" lon="2.51007">
        <ele>91</ele>
        <time>2015-11-10T17:03:56Z</time>
      </trkpt>
      <trkpt lat="48.74028" lon="2.51012">
        <ele>91</ele>
        <time>2015-11-10T17:05:56Z</time>
      </trkpt>
      <trkpt lat="48.74046" lon="2.51019">
        <ele>91</ele>
        <time>2015-11-10T17:07:56Z</time>
      </trkpt>
      <trkpt lat="48.74062" lon="2.51028">
        <ele>92</ele>
        <time>2015-11-10T17:09:56Z</time>
      </trkpt>
      <trkpt lat="48.74092" lon="2.51046">
        <ele>92</ele>
        <time>2015-11-10T17:11:56Z</time>
      </trkpt>
      <trkpt lat="48.74111" lon="2.51053">
        <ele>93</ele>
        <time>2015-11-10T17:13:56Z</time>
      </trkpt>
      <trkpt lat="48.74126" lon="2.51057">
        <ele>93</ele>
        <time>2015-11-10T17:15:56Z</time>
      </trkpt>
      <trkpt lat="48.74141" lon="2.51058">
        <ele>93</ele>
        <time>2015-11-10T17:17:56Z</time>
      </trkpt>
      <trkpt lat="48.74152" lon="2.51062">
        <ele>94</ele>
        <time>2015-11-10T17:19:56Z</time>
      </trkpt>
      <trkpt lat="48.74168" lon="2.51061">
        <ele>94</ele>
        <time>2015-11-10T17:21:56Z</time>
      </trkpt>
      <trkpt lat="48.74182" lon="2.51064">
        <ele>94</ele>
        <time>2015-11-10T17:23:56Z</time>
      </trkpt>
      <trkpt lat="48.74194" lon="2.51065">
        <ele>94</ele>
        <time>2015-11-10T17:25:56Z</time>
      </trkpt>
      <trkpt lat="48.74216" lon="2.51077">
        <ele>94</ele>
        <time>2015-11-10T17:27:56Z</time>
      </trkpt>
      <trkpt lat="48.74239" lon="2.51088">
        <ele>94</ele>
        <time>2015-11-10T17:29:56Z</time>
      </trkpt>
      <trkpt lat="48.74256" lon="2.51095">
        <ele>94</ele>
        <time>2015-11-10T17:31:56Z</time>
      </trkpt>
      <trkpt lat="48.74275" lon="2.51099">
        <ele>93</ele>
        <time>2015-11-10T17:33:56Z</time>
      </trkpt>
      <trkpt lat="48.74309" lon="2.51107">
        <ele>92</ele>
        <time>2015-11-10T17:35:56Z</time>
      </trkpt>
      <trkpt lat="48.74391" lon="2.51119">
        <ele>91</ele>
        <time>2015-11-10T17:37:56Z</time>
      </trkpt>
      <trkpt lat="48.74399" lon="2.51112">
        <ele>91</ele>
        <time>2015-11-10T17:39:56Z</time>
      </trkpt>
      <trkpt lat="48.74408" lon="2.51114">
        <ele>91</ele>
        <time>2015-11-10T17:41:56Z</time>
      </trkpt>
      <trkpt lat="48.74416" lon="2.51115">
        <ele>91</ele>
        <time>2015-11-10T17:43:56Z</time>
      </trkpt>
      <trkpt lat="48.74441" lon="2.5114">
        <ele>91</ele>
        <time>2015-11-10T17:45:56Z</time>
      </trkpt>
      <trkpt lat="48.74466" lon="2.51163">
        <ele>90</ele>
        <time>2015-11-10T17:47:56Z</time>
      </trkpt>
      <trkpt lat="48.74472" lon="2.5116">
        <ele>90</ele>
        <time>2015-11-10T17:49:56Z</time>
      </trkpt>
      <trkpt lat="48.74471" lon="2.51152">
        <ele>90</ele>
        <time>2015-11-10T17:51:56Z</time>
      </trkpt>
      <trkpt lat="48.74459" lon="2.51138">
        <ele>90</ele>
        <time>2015-11-10T17:53:56Z</time>
      </trkpt>
      <trkpt lat="48.74442" lon="2.51123">
        <ele>91</ele>
        <time>2015-11-10T17:55:56Z</time>
      </trkpt>
      <trkpt lat="48.74426" lon="2.51107">
        <ele>91</ele>
        <time>2015-11-10T17:57:56Z</time>
      </trkpt>
      <trkpt lat="48.74417" lon="2.51102">
        <ele>91</ele>
        <time>2015-11-10T17:59:56Z</time>
      </trkpt>
      <trkpt lat="48.74416" lon="2.51094">
        <ele>91</ele>
        <time>2015-11-10T18:01:56Z</time>
      </trkpt>
      <trkpt lat="48.74405" lon="2.51088">
        <ele>91</ele>
        <time>2015-11-10T18:03:56Z</time>
      </trkpt>
      <trkpt lat="48.74397" lon="2.51089">
        <ele>91</ele>
        <time>2015-11-10T18:05:56Z</time>
      </trkpt>
      <trkpt lat="48.74329" lon="2.5101">
        <ele>91</ele>
        <time>2015-11-10T18:07:56Z</time>
      </trkpt>
      <trkpt lat="48.74109" lon="2.50746">
        <ele>91</ele>
        <time>2015-11-10T18:09:56Z</time>
      </trkpt>
      <trkpt lat="48.74103" lon="2.50739">
        <ele>91</ele>
        <time>2015-11-10T18:11:56Z</time>
      </trkpt>
      <trkpt lat="48.74092" lon="2.5073">
        <ele>91</ele>
        <time>2015-11-10T18:13:56Z</time>
      </trkpt>
      <trkpt lat="48.74077" lon="2.5072">
        <ele>91</ele>
        <time>2015-11-10T18:15:56Z</time>
      </trkpt>
      <trkpt lat="48.74052" lon="2.50692">
        <ele>92</ele>
        <time>2015-11-10T18:17:56Z</time>
      </trkpt>
      <trkpt lat="48.74039" lon="2.50677">
        <ele>93</ele>
        <time>2015-11-10T18:19:56Z</time>
      </trkpt>
      <trkpt lat="48.74018" lon="2.50654">
        <ele>94</ele>
        <time>2015-11-10T18:21:56Z</time>
      </trkpt>
      <trkpt lat="48.7402" lon="2.50635">
        <ele>93</ele>
        <time>2015-11-10T18:23:56Z</time>
      </trkpt>
      <trkpt lat="48.73898" lon="2.50489">
        <ele>97</ele>
        <time>2015-11-10T18:25:56Z</time>
      </trkpt>
      <trkpt lat="48.73815" lon="2.50381">
        <ele>96</ele>
        <time>2015-11-10T18:27:56Z</time>
      </trkpt>
      <trkpt lat="48.73754" lon="2.50308">
        <ele>95</ele>
        <time>2015-11-10T18:29:56Z</time>
      </trkpt>
      <trkpt lat="48.73735" lon="2.50284">
        <ele>96</ele>
        <time>2015-11-10T18:31:56Z</time>
      </trkpt>
      <trkpt lat="48.73363" lon="2.50317">
        <ele>94</ele>
        <time>2015-11-10T18:33:56Z</time>
      </trkpt>
      <trkpt lat="48.73363" lon="2.50309">
        <ele>93</ele>
        <time>2015-11-10T18:35:56Z</time>
      </trkpt>
      <trkpt lat="48.73364" lon="2.50298">
        <ele>93</ele>
        <time>2015-11-10T18:37:56Z</time>
      </trkpt>
      <trkpt lat="48.73364" lon="2.50283">
        <ele>93</ele>
        <time>2015-11-10T18:39:56Z</time>
      </trkpt>
      <trkpt lat="48.73359" lon="2.50272">
        <ele>93</ele>
        <time>2015-11-10T18:41:56Z</time>
      </trkpt>
      <trkpt lat="48.73354" lon="2.50255">
        <ele>93</ele>
        <time>2015-11-10T18:43:56Z</time>
      </trkpt>
      <trkpt lat="48.73352" lon="2.50236">
        <ele>93</ele>
        <time>2015-11-10T18:45:56Z</time>
      </trkpt>
      <trkpt lat="48.7335" lon="2.50225">
        <ele>94</ele>
        <time>2015-11-10T18:47:56Z</time>
      </trkpt>
      <trkpt lat="48.73352" lon="2.50202">
        <ele>94</ele>
        <time>2015-11-10T18:49:56Z</time>
      </trkpt>
      <trkpt lat="48.73358" lon="2.50166">
        <ele>94</ele>
        <time>2015-11-10T18:51:56Z</time>
      </trkpt>
      <trkpt lat="48.73364" lon="2.50124">
        <ele>92</ele>
        <time>2015-11-10T18:53:56Z</time>
      </trkpt>
      <trkpt lat="48.73375" lon="2.50076">
        <ele>90</ele>
        <time>2015-11-10T18:55:56Z</time>
      </trkpt>
      <trkpt lat="48.73377" lon="2.50063">
        <ele>90</ele>
        <time>2015-11-10T18:57:56Z</time>
      </trkpt>
      <trkpt lat="48.73382" lon="2.5005">
        <ele>90</ele>
        <time>2015-11-10T18:59:56Z</time>
      </trkpt>
      <trkpt lat="48.73384" lon="2.50034">
        <ele>90</ele>
        <time>2015-11-10T19:01:56Z</time>
      </trkpt>
      <trkpt lat="48.73382" lon="2.50003">
        <ele>89</ele>
        <time>2015-11-10T19:03:56Z</time>
      </trkpt>
      <trkpt lat="48.73376" lon="2.49976">
        <ele>90</ele>
        <time>2015-11-10T19:05:56Z</time>
      </trkpt>
      <trkpt lat="48.73375" lon="2.49958">
        <ele>90</ele>
        <time>2015-11-10T19:07:56Z</time>
      </trkpt>
      <trkpt lat="48.73376" lon="2.49931">
        <ele>91</ele>
        <time>2015-11-10T19:09:56Z</time>
      </trkpt>
      <trkpt lat="48.73378" lon="2.49903">
        <ele>91</ele>
        <time>2015-11-10T19:11:56Z</time>
      </trkpt>
      <trkpt lat="48.73382" lon="2.49884">
        <ele>91</ele>
        <time>2015-11-10T19:13:56Z</time>
      </trkpt>
      <trkpt lat="48.73387" lon="2.49856">
        <ele>91</ele>
        <time>2015-11-10T19:15:56Z</time>
      </trkpt>
      <trkpt lat="48.73387" lon="2.49801">
        <ele>92</ele>
        <time>2015-11-10T19:17:56Z</time>
      </trkpt>
      <trkpt lat="48.73388" lon="2.49786">
        <ele>92</ele>
        <time>2015-11-10T19:19:56Z</time>
      </trkpt>
      <trkpt lat="48.73391" lon="2.49771">
        <ele>92</ele>
        <time>2015-11-10T19:21:56Z</time>
      </trkpt>
      <trkpt lat="48.73396" lon="2.49761">
        <ele>92</ele>
        <time>2015-11-10T19:23:56Z</time>
      </trkpt>
      <trkpt lat="48.73397" lon="2.4975">
        <ele>92</ele>
        <time>2015-11-10T19:25:56Z</time>
      </trkpt>
      <trkpt lat="48.73399" lon="2.49734">
        <ele>92</ele>
        <time>2015-11-10T19:27:56Z</time>
      </trkpt>
      <trkpt lat="48.73407" lon="2.49704">
        <ele>91</ele>
        <time>2015-11-10T19:29:56Z</time>
      </trkpt>
      <trkpt lat="48.7341" lon="2.49681">
        <ele>91</ele>
        <time>2015-11-10T19:31:56Z</time>
      </trkpt>
      <trkpt lat="48.7341" lon="2.49671">
        <ele>92</ele>
        <time>2015-11-10T19:33:56Z</time>
      </trkpt>
      <trkpt lat="48.73405" lon="2.49665">
        <ele>92</ele>
        <time>2015-11-10T19:35:56Z</time>
      </trkpt>
      <trkpt lat="48.73397" lon="2.49666">
        <ele>93</ele>
        <time>2015-11-10T19:37:56Z</time>
      </trkpt>
      <trkpt lat="48.7339" lon="2.49664">
        <ele>93</ele>
        <time>2015-11-10T19:39:56Z</time>
      </trkpt>
      <trkpt lat="48.73387" lon="2.49653">
        <ele>93</ele>
        <time>2015-11-10T19:41:56Z</time>
      </trkpt>
      <trkpt lat="48.73387" lon="2.49617">
        <ele>93</ele>
        <time>2015-11-10T19:43:56Z</time>
      </trkpt>
      <trkpt lat="48.73396" lon="2.49539">
        <ele>92</ele>
        <time>2015-11-10T19:45:56Z</time>
      </trkpt>
      <trkpt lat="48.73403" lon="2.49482">
        <ele>92</ele>
        <time>2015-11-10T19:47:56Z</time>
      </trkpt>
      <trkpt lat="48.73409" lon="2.49429">
        <ele>92</ele>
        <time>2015-11-10T19:49:56Z</time>
      </trkpt>
      <trkpt lat="48.73412" lon="2.49396">
        <ele>92</ele>
        <time>2015-11-10T19:51:56Z</time>
      </trkpt>
      <trkpt lat="48.73415" lon="2.49368">
        <ele>93</ele>
        <time>2015-11-10T19:53:56Z</time>
      </trkpt>
      <trkpt lat="48.73378" lon="2.49384">
        <ele>94</ele>
        <time>2015-11-10T19:55:56Z</time>
      </trkpt>
      <trkpt lat="48.73351" lon="2.49222">
        <ele>96</ele>
        <time>2015-11-10T19:57:56Z</time>
      </trkpt>
      <trkpt lat="48.73255" lon="2.48635">
        <ele>94</ele>
        <time>2015-11-10T19:59:56Z</time>
      </trkpt>
      <trkpt lat="48.73236" lon="2.48643">
        <ele>94</ele>
        <time>2015-11-10T20:01:56Z</time>
      </trkpt>
      <trkpt lat="48.73224" lon="2.48649">
        <ele>94</ele>
        <time>2015-11-10T20:03:56Z</time>
      </trkpt>
      <trkpt lat="48.73216" lon="2.48656">
        <ele>95</ele>
        <time>2015-11-10T20:05:56Z</time>
      </trkpt>
      <trkpt lat="48.73182" lon="2.48684">
        <ele>95</ele>
        <time>2015-11-10T20:07:56Z</time>
      </trkpt>
      <trkpt lat="48.73168" lon="2.48697">
        <ele>95</ele>
        <time>2015-11-10T20:09:56Z</time>
      </trkpt>
      <trkpt lat="48.73152" lon="2.48715">
        <ele>95</ele>
        <time>2015-11-10T20:11:56Z</time>
      </trkpt>
      <trkpt lat="48.73142" lon="2.4873">
        <ele>95</ele>
        <time>2015-11-10T20:13:56Z</time>
      </trkpt>
      <trkpt lat="48.73123" lon="2.48755">
        <ele>95</ele>
        <time>2015-11-10T20:15:56Z</time>
      </trkpt>
      <trkpt lat="48.73109" lon="2.48775">
        <ele>95</ele>
        <time>2015-11-10T20:17:56Z</time>
      </trkpt>
      <trkpt lat="48.73095" lon="2.48792">
        <ele>95</ele>
        <time>2015-11-10T20:19:56Z</time>
      </trkpt>
      <trkpt lat="48.73082" lon="2.48804">
        <ele>94</ele>
        <time>2015-11-10T20:21:56Z</time>
      </trkpt>
      <trkpt lat="48.7307" lon="2.4882">
        <ele>95</ele>
        <time>2015-11-10T20:23:56Z</time>
      </trkpt>
      <trkpt lat="48.73051" lon="2.48843">
        <ele>96</ele>
        <time>2015-11-10T20:25:56Z</time>
      </trkpt>
      <trkpt lat="48.72924" lon="2.48464">
        <ele>94</ele>
        <time>2015-11-10T20:27:56Z</time>
      </trkpt>
      <trkpt lat="48.72904" lon="2.4847">
        <ele>94</ele>
        <time>2015-11-10T20:29:56Z</time>
      </trkpt>
      <trkpt lat="48.7281" lon="2.48529">
        <ele>93</ele>
        <time>2015-11-10T20:31:56Z</time>
      </trkpt>
      <trkpt lat="48.72777" lon="2.48549">
        <ele>92</ele>
        <time>2015-11-10T20:33:56Z</time>
      </trkpt>
      <trkpt lat="48.7276" lon="2.48558">
        <ele>91</ele>
        <time>2015-11-10T20:35:56Z</time>
      </trkpt>
      <trkpt lat="48.72748" lon="2.48562">
        <ele>91</ele>
        <time>2015-11-10T20:37:56Z</time>
      </trkpt>
      <trkpt lat="48.72738" lon="2.48561">
        <ele>91</ele>
        <time>2015-11-10T20:39:56Z</time>
      </trkpt>
      <trkpt lat="48.72724" lon="2.48558">
        <ele>92</ele>
        <time>2015-11-10T20:41:56Z</time>
      </trkpt>
      <trkpt lat="48.72713" lon="2.48558">
        <ele>93</ele>
        <time>2015-11-10T20:43:56Z</time>
      </trkpt>
      <trkpt lat="48.72701" lon="2.48563">
        <ele>93</ele>
        <time>2015-11-10T20:45:56Z</time>
      </trkpt>
      <trkpt lat="48.72686" lon="2.48578">
        <ele>94</ele>
        <time>2015-11-10T20:47:56Z</time>
      </trkpt>
      <trkpt lat="48.72219" lon="2.47932">
        <ele>107</ele>
        <time>2015-11-10T20:49:56Z</time>
      </trkpt>
      <trkpt lat="48.71998" lon="2.47636">
        <ele>95</ele>
        <time>2015-11-10T20:51:56Z</time>
      </trkpt>
      <trkpt lat="48.71971" lon="2.47599">
        <ele>91</ele>
        <time>2015-11-10T20:53:56Z</time>
      </trkpt>
      <trkpt lat="48.71958" lon="2.47576">
        <ele>90</ele>
        <time>2015-11-10T20:55:56Z</time>
      </trkpt>
      <trkpt lat="48.71944" lon="2.47572">
        <ele>89</ele>
        <time>2015-11-10T20:57:56Z</time>
      </trkpt>
      <trkpt lat="48.71917" lon="2.47568">
        <ele>88</ele>
        <time>2015-11-10T20:59:56Z</time>
      </trkpt>
      <trkpt lat="48.71891" lon="2.47558">
        <ele>88</ele>
        <time>2015-11-10T21:01:56Z</time>
      </trkpt>
      <trkpt lat="48.71861" lon="2.4755">
        <ele>88</ele>
        <time>2015-11-10T21:03:56Z</time>
      </trkpt>
      <trkpt lat="48.71838" lon="2.4754">
        <ele>87</ele>
        <time>2015-11-10T21:05:56Z</time>
      </trkpt>
      <trkpt lat="48.71817" lon="2.47533">
        <ele>86</ele>
        <time>2015-11-10T21:07:56Z</time>
      </trkpt>
      <trkpt lat="48.71784" lon="2.47524">
        <ele>83</ele>
        <time>2015-11-10T21:09:56Z</time>
      </trkpt>
      <trkpt lat="48.71778" lon="2.47525">
        <ele>82</ele>
        <time>2015-11-10T21:11:56Z</time>
      </trkpt>
      <trkpt lat="48.71761" lon="2.47526">
        <ele>80</ele>
        <time>2015-11-10T21:13:56Z</time>
      </trkpt>
      <trkpt lat="48.71754" lon="2.47528">
        <ele>79</ele>
        <time>2015-11-10T21:15:56Z</time>
      </trkpt>
      <trkpt lat="48.71746" lon="2.47534">
        <ele>78</ele>
        <time>2015-11-10T21:17:56Z</time>
      </trkpt>
      <trkpt lat="48.71723" lon="2.47554">
        <ele>72</ele>
        <time>2015-11-10T21:19:56Z</time>
      </trkpt>
      <trkpt lat="48.71698" lon="2.47569">
        <ele>67</ele>
        <time>2015-11-10T21:21:56Z</time>
      </trkpt>
      <trkpt lat="48.7169" lon="2.47571">
        <ele>65</ele>
        <time>2015-11-10T21:23:56Z</time>
      </trkpt>
      <trkpt lat="48.71681" lon="2.47578">
        <ele>63</ele>
        <time>2015-11-10T21:25:56Z</time>
      </trkpt>
      <trkpt lat="48.71669" lon="2.47594">
        <ele>60</ele>
        <time>2015-11-10T21:27:56Z</time>
      </trkpt>
      <trkpt lat="48.71676" lon="2.47627">
        <ele>60</ele>
        <time>2015-11-10T21:29:56Z</time>
      </trkpt>
      <trkpt lat="48.71683" lon="2.47653">
        <ele>60</ele>
        <time>2015-11-10T21:31:56Z</time>
      </trkpt>
      <trkpt lat="48.71687" lon="2.47677">
        <ele>60</ele>
        <time>2015-11-10T21:33:56Z</time>
      </trkpt>
      <trkpt lat="48.71695" lon="2.47703">
        <ele>61</ele>
        <time>2015-11-10T21:35:56Z</time>
      </trkpt>
      <trkpt lat="48.71703" lon="2.47739">
        <ele>61</ele>
        <time>2015-11-10T21:37:56Z</time>
      </trkpt>
      <trkpt lat="48.71716" lon="2.47813">
        <ele>59</ele>
        <time>2015-11-10T21:39:56Z</time>
      </trkpt>
      <trkpt lat="48.71582" lon="2.47854">
        <ele>38</ele>
        <time>2015-11-10T21:41:56Z</time>
      </trkpt>
      <trkpt lat="48.71577" lon="2.47856">
        <ele>38</ele>
        <time>2015-11-10T21:43:56Z</time>
      </trkpt>
      <trkpt lat="48.71574" lon="2.47844">
        <ele>38</ele>
        <time>2015-11-10T21:45:56Z</time>
      </trkpt>
      <trkpt lat="48.71542" lon="2.47854">
        <ele>38</ele>
        <time>2015-11-10T21:47:56Z</time>
      </trkpt>
      <trkpt lat="48.71515" lon="2.47862">
        <ele>38</ele>
        <time>2015-11-10T21:49:56Z</time>
      </trkpt>
      <trkpt lat="48.71526" lon="2.4789">
        <ele>38</ele>
        <time>2015-11-10T21:51:56Z</time>
      </trkpt>
      <trkpt lat="48.71537" lon="2.47934">
        <ele>38</ele>
        <time>2015-11-10T21:53:56Z</time>
      </trkpt>
      <trkpt lat="48.71542" lon="2.47953">
        <ele>38</ele>
        <time>2015-11-10T21:55:56Z</time>
      </trkpt>
      <trkpt lat="48.71547" lon="2.47974">
        <ele>38</ele>
        <time>2015-11-10T21:57:56Z</time>
      </trkpt>
      <trkpt lat="48.71554" lon="2.48001">
        <ele>38</ele>
        <time>2015-11-10T21:59:56Z</time>
      </trkpt>
      <trkpt lat="48.71559" lon="2.48017">
        <ele>38</ele>
        <time>2015-11-10T22:01:56Z</time>
      </trkpt>
      <trkpt lat="48.71565" lon="2.48039">
        <ele>38</ele>
        <time>2015-11-10T22:03:56Z</time>
      </trkpt>
      <trkpt lat="48.71569" lon="2.48061">
        <ele>39</ele>
        <time>2015-11-10T22:05:56Z</time>
      </trkpt>
      <trkpt lat="48.71572" lon="2.48079">
        <ele>39</ele>
        <time>2015-11-10T22:07:56Z</time>
      </trkpt>
      <trkpt lat="48.71577" lon="2.48131">
        <ele>41</ele>
        <time>2015-11-10T22:09:56Z</time>
      </trkpt>
      <trkpt lat="48.71579" lon="2.48144">
        <ele>41</ele>
        <time>2015-11-10T22:11:56Z</time>
      </trkpt>
      <trkpt lat="48.7158" lon="2.48162">
        <ele>42</ele>
        <time>2015-11-10T22:13:56Z</time>
      </trkpt>
      <trkpt lat="48.7158" lon="2.48183">
        <ele>42</ele>
        <time>2015-11-10T22:15:56Z</time>
      </trkpt>
      <trkpt lat="48.71579" lon="2.482">
        <ele>42</ele>
        <time>2015-11-10T22:17:56Z</time>
      </trkpt>
      <trkpt lat="48.71577" lon="2.48214">
        <ele>42</ele>
        <time>2015-11-10T22:19:56Z</time>
      </trkpt>
      <trkpt lat="48.71575" lon="2.48238">
        <ele>42</ele>
        <time>2015-11-10T22:21:56Z</time>
      </trkpt>
      <trkpt lat="48.71575" lon="2.48253">
        <ele>42</ele>
        <time>2015-11-10T22:23:56Z</time>
      </trkpt>
      <trkpt lat="48.71573" lon="2.48273">
        <ele>41</ele>
        <time>2015-11-10T22:25:56Z</time>
      </trkpt>
      <trkpt lat="48.71572" lon="2.4829">
        <ele>41</ele>
        <time>2015-11-10T22:27:56Z</time>
      </trkpt>
      <trkpt lat="48.7157" lon="2.48313">
        <ele>41</ele>
        <time>2015-11-10T22:29:56Z</time>
      </trkpt>
      <trkpt lat="48.71558" lon="2.48372">
        <ele>40</ele>
        <time>2015-11-10T22:31:56Z</time>
      </trkpt>
      <trkpt lat="48.71553" lon="2.48387">
        <ele>40</ele>
        <time>2015-11-10T22:33:56Z</time>
      </trkpt>
      <trkpt lat="48.71548" lon="2.48408">
        <ele>40</ele>
        <time>2015-11-10T22:35:56Z</time>
      </trkpt>
      <trkpt lat="48.71543" lon="2.4842">
        <ele>40</ele>
        <time>2015-11-10T22:37:56Z</time>
      </trkpt>
      <trkpt lat="48.7154" lon="2.48433">
        <ele>40</ele>
        <time>2015-11-10T22:39:56Z</time>
      </trkpt>
      <trkpt lat="48.71533" lon="2.4844">
        <ele>40</ele>
        <time>2015-11-10T22:41:56Z</time>
      </trkpt>
      <trkpt lat="48.71524" lon="2.48446">
        <ele>40</ele>
        <time>2015-11-10T22:43:56Z</time>
      </trkpt>
      <trkpt lat="48.71512" lon="2.48446">
        <ele>40</ele>
        <time>2015-11-10T22:45:56Z</time>
      </trkpt>
      <trkpt lat="48.71501" lon="2.48445">
        <ele>40</ele>
        <time>2015-11-10T22:47:56Z</time>
      </trkpt>
      <trkpt lat="48.71491" lon="2.48445">
        <ele>40</ele>
        <time>2015-11-10T22:49:56Z</time>
      </trkpt>
      <trkpt lat="48.7149" lon="2.48459">
        <ele>40</ele>
        <time>2015-11-10T22:51:56Z</time>
      </trkpt>
      <trkpt lat="48.71496" lon="2.48469">
        <ele>40</ele>
        <time>2015-11-10T22:53:56Z</time>
      </trkpt>
      <trkpt lat="48.71501" lon="2.48482">
        <ele>40</ele>
        <time>2015-11-10T22:55:56Z</time>
      </trkpt>
      <trkpt lat="48.71505" lon="2.48499">
        <ele>40</ele>
        <time>2015-11-10T22:57:56Z</time>
      </trkpt>
      <trkpt lat="48.71507" lon="2.48517">
        <ele>40</ele>
        <time>2015-11-10T22:59:56Z</time>
      </trkpt>
      <trkpt lat="48.71509" lon="2.48565">
        <ele>40</ele>
        <time>2015-11-10T23:01:56Z</time>
      </trkpt>
      <trkpt lat="48.71509" lon="2.48588">
        <ele>40</ele>
        <time>2015-11-10T23:03:56Z</time>
      </trkpt>
      <trkpt lat="48.71503" lon="2.486">
        <ele>40</ele>
        <time>2015-11-10T23:05:56Z</time>
      </trkpt>
      <trkpt lat="48.71497" lon="2.48618">
        <ele>39</ele>
        <time>2015-11-10T23:07:56Z</time>
      </trkpt>
      <trkpt lat="48.71494" lon="2.48637">
        <ele>39</ele>
        <time>2015-11-10T23:09:56Z</time>
      </trkpt>
      <trkpt lat="48.71489" lon="2.4866">
        <ele>38</ele>
        <time>2015-11-10T23:11:56Z</time>
      </trkpt>
      <trkpt lat="48.71486" lon="2.48691">
        <ele>38</ele>
        <time>2015-11-10T23:13:56Z</time>
      </trkpt>
      <trkpt lat="48.71479" lon="2.4873">
        <ele>38</ele>
        <time>2015-11-10T23:15:56Z</time>
      </trkpt>
      <trkpt lat="48.71472" lon="2.48753">
        <ele>39</ele>
        <time>2015-11-10T23:17:56Z</time>
      </trkpt>
      <trkpt lat="48.71458" lon="2.48815">
        <ele>39</ele>
        <time>2015-11-10T23:19:56Z</time>
      </trkpt>
      <trkpt lat="48.71442" lon="2.48876">
        <ele>39</ele>
        <time>2015-11-10T23:21:56Z</time>
      </trkpt>
      <trkpt lat="48.71441" lon="2.48867">
        <ele>40</ele>
        <time>2015-11-10T23:23:56Z</time>
      </trkpt>
      <trkpt lat="48.71451" lon="2.48835">
        <ele>40</ele>
        <time>2015-11-10T23:25:56Z</time>
      </trkpt>
      <trkpt lat="48.71466" lon="2.48769">
        <ele>39</ele>
        <time>2015-11-10T23:27:56Z</time>
      </trkpt>
      <trkpt lat="48.7148" lon="2.48716">
        <ele>38</ele>
        <time>2015-11-10T23:29:56Z</time>
      </trkpt>
      <trkpt lat="48.71459" lon="2.48738">
        <ele>39</ele>
        <time>2015-11-10T23:31:56Z</time>
      </trkpt>
      <trkpt lat="48.71448" lon="2.4875">
        <ele>39</ele>
        <time>2015-11-10T23:33:56Z</time>
      </trkpt>
      <trkpt lat="48.71434" lon="2.48759">
        <ele>40</ele>
        <time>2015-11-10T23:35:56Z</time>
      </trkpt>
      <trkpt lat="48.7143" lon="2.48773">
        <ele>40</ele>
        <time>2015-11-10T23:37:56Z</time>
      </trkpt>
      <trkpt lat="48.71423" lon="2.48801">
        <ele>40</ele>
        <time>2015-11-10T23:39:56Z</time>
      </trkpt>
      <trkpt lat="48.71417" lon="2.48816">
        <ele>41</ele>
        <time>2015-11-10T23:41:56Z</time>
      </trkpt>
      <trkpt lat="48.7141" lon="2.4883">
        <ele>41</ele>
        <time>2015-11-10T23:43:56Z</time>
      </trkpt>
      <trkpt lat="48.71401" lon="2.48843">
        <ele>41</ele>
        <time>2015-11-10T23:45:56Z</time>
      </trkpt>
      <trkpt lat="48.71389" lon="2.48855">
        <ele>41</ele>
        <time>2015-11-10T23:47:56Z</time>
      </trkpt>
      <trkpt lat="48.71373" lon="2.48908">
        <ele>40</ele>
        <time>2015-11-10T23:49:56Z</time>
      </trkpt>
      <trkpt lat="48.71383" lon="2.48918">
        <ele>39</ele>
        <time>2015-11-10T23:51:56Z</time>
      </trkpt>
      <trkpt lat="48.71401" lon="2.48929">
        <ele>39</ele>
        <time>2015-11-10T23:53:56Z</time>
      </trkpt>
      <trkpt lat="48.71422" lon="2.48941">
        <ele>39</ele>
        <time>2015-11-10T23:55:56Z</time>
      </trkpt>
      <trkpt lat="48.71447" lon="2.48952">
        <ele>39</ele>
        <time>2015-11-10T23:57:56Z</time>
      </trkpt>
      <trkpt lat="48.71472" lon="2.48972">
        <ele>40</ele>
        <time>2015-11-10T23:59:56Z</time>
      </trkpt>
      <trkpt lat="48.71462" lon="2.48979">
        <ele>40</ele>
        <time>2015-11-11T00:01:56Z</time>
      </trkpt>
      <trkpt lat="48.71455" lon="2.4899">
        <ele>40</ele>
        <time>2015-11-11T00:03:56Z</time>
      </trkpt>
      <trkpt lat="48.71449" lon="2.49012">
        <ele>41</ele>
        <time>2015-11-11T00:05:56Z</time>
      </trkpt>
      <trkpt lat="48.71446" lon="2.49026">
        <ele>41</ele>
        <time>2015-11-11T00:07:56Z</time>
      </trkpt>
      <trkpt lat="48.71438" lon="2.49057">
        <ele>41</ele>
        <time>2015-11-11T00:09:56Z</time>
      </trkpt>
      <trkpt lat="48.71433" lon="2.49075">
        <ele>41</ele>
        <time>2015-11-11T00:11:56Z</time>
      </trkpt>
      <trkpt lat="48.71431" lon="2.49091">
        <ele>41</ele>
        <time>2015-11-11T00:13:56Z</time>
      </trkpt>
      <trkpt lat="48.7143" lon="2.49101">
        <ele>42</ele>
        <time>2015-11-11T00:15:56Z</time>
      </trkpt>
      <trkpt lat="48.71422" lon="2.4912">
        <ele>42</ele>
        <time>2015-11-11T00:17:56Z</time>
      </trkpt>
      <trkpt lat="48.71413" lon="2.49134">
        <ele>42</ele>
        <time>2015-11-11T00:19:56Z</time>
      </trkpt>
      <trkpt lat="48.71402" lon="2.49157">
        <ele>42</ele>
        <time>2015-11-11T00:21:56Z</time>
      </trkpt>
      <trkpt lat="48.71396" lon="2.49179">
        <ele>42</ele>
        <time>2015-11-11T00:23:56Z</time>
      </trkpt>
      <trkpt lat="48.7139" lon="2.49198">
        <ele>42</ele>
        <time>2015-11-11T00:25:56Z</time>
      </trkpt>
      <trkpt lat="48.71384" lon="2.4922">
        <ele>42</ele>
        <time>2015-11-11T00:27:56Z</time>
      </trkpt>
      <trkpt lat="48.71378" lon="2.49244">
        <ele>42</ele>
        <time>2015-11-11T00:29:56Z</time>
      </trkpt>
      <trkpt lat="48.71378" lon="2.49281">
        <ele>42</ele>
        <time>2015-11-11T00:31:56Z</time>
      </trkpt>
      <trkpt lat="48.71356" lon="2.49312">
        <ele>41</ele>
        <time>2015-11-11T00:33:56Z</time>
      </trkpt>
      <trkpt lat="48.7135" lon="2.49311">
        <ele>41</ele>
        <time>2015-11-11T00:35:56Z</time>
      </trkpt>
      <trkpt lat="48.71335" lon="2.49291">
        <ele>40</ele>
        <time>2015-11-11T00:37:56Z</time>
      </trkpt>
      <trkpt lat="48.71324" lon="2.493">
        <ele>40</ele>
        <time>2015-11-11T00:39:56Z</time>
      </trkpt>
      <trkpt lat="48.7131" lon="2.49314">
        <ele>40</ele>
        <time>2015-11-11T00:41:56Z</time>
      </trkpt>
      <trkpt lat="48.71298" lon="2.49318">
        <ele>39</ele>
        <time>2015-11-11T00:43:56Z</time>
      </trkpt>
      <trkpt lat="48.71291" lon="2.49326">
        <ele>39</ele>
        <time>2015-11-11T00:45:56Z</time>
      </trkpt>
      <trkpt lat="48.71285" lon="2.49335">
        <ele>39</ele>
        <time>2015-11-11T00:47:56Z</time>
      </trkpt>
      <trkpt lat="48.7128" lon="2.49341">
        <ele>39</ele>
        <time>2015-11-11T00:49:56Z</time>
      </trkpt>
      <trkpt lat="48.71281" lon="2.49349">
        <ele>39</ele>
        <time>2015-11-11T00:51:56Z</time>
      </trkpt>
      <trkpt lat="48.71274" lon="2.49362">
        <ele>38</ele>
        <time>2015-11-11T00:53:56Z</time>
      </trkpt>
      <trkpt lat="48.71265" lon="2.49367">
        <ele>38</ele>
        <time>2015-11-11T00:55:56Z</time>
      </trkpt>
      <trkpt lat="48.71254" lon="2.4938">
        <ele>38</ele>
        <time>2015-11-11T00:57:56Z</time>
      </trkpt>
      <trkpt lat="48.71248" lon="2.49384">
        <ele>38</ele>
        <time>2015-11-11T00:59:56Z</time>
      </trkpt>
      <trkpt lat="48.71222" lon="2.49393">
        <ele>38</ele>
        <time>2015-11-11T01:01:56Z</time>
      </trkpt>
      <trkpt lat="48.71211" lon="2.494">
        <ele>38</ele>
        <time>2015-11-11T01:03:56Z</time>
      </trkpt>
      <trkpt lat="48.71203" lon="2.49408">
        <ele>38</ele>
        <time>2015-11-11T01:05:56Z</time>
      </trkpt>
      <trkpt lat="48.71193" lon="2.49416">
        <ele>37</ele>
        <time>2015-11-11T01:07:56Z</time>
      </trkpt>
      <trkpt lat="48.71183" lon="2.49428">
        <ele>37</ele>
        <time>2015-11-11T01:09:56Z</time>
      </trkpt>
      <trkpt lat="48.71173" lon="2.49436">
        <ele>37</ele>
        <time>2015-11-11T01:11:56Z</time>
      </trkpt>
      <trkpt lat="48.71166" lon="2.49446">
        <ele>37</ele>
        <time>2015-11-11T01:13:56Z</time>
      </trkpt>
      <trkpt lat="48.71159" lon="2.49454">
        <ele>37</ele>
        <time>2015-11-11T01:15:56Z</time>
      </trkpt>
      <trkpt lat="48.71151" lon="2.49464">
        <ele>37</ele>
        <time>2015-11-11T01:17:56Z</time>
      </trkpt>
      <trkpt lat="48.71142" lon="2.49472">
        <ele>37</ele>
        <time>2015-11-11T01:19:56Z</time>
      </trkpt>
      <trkpt lat="48.71133" lon="2.49481">
        <ele>37</ele>
        <time>2015-11-11T01:21:56Z</time>
      </trkpt>
      <trkpt lat="48.71122" lon="2.49488">
        <ele>38</ele>
        <time>2015-11-11T01:23:56Z</time>
      </trkpt>
      <trkpt lat="48.71109" lon="2.49494">
        <ele>38</ele>
        <time>2015-11-11T01:25:56Z</time>
      </trkpt>
      <trkpt lat="48.71095" lon="2.49499">
        <ele>38</ele>
        <time>2015-11-11T01:27:56Z</time>
      </trkpt>
      <trkpt lat="48.71077" lon="2.49509">
        <ele>38</ele>
        <time>2015-11-11T01:29:56Z</time>
      </trkpt>
      <trkpt lat="48.7106" lon="2.49519">
        <ele>38</ele>
        <time>2015-11-11T01:31:56Z</time>
      </trkpt>
      <trkpt lat="48.71052" lon="2.49525">
        <ele>38</ele>
        <time>2015-11-11T01:33:56Z</time>
      </trkpt>
      <trkpt lat="48.71045" lon="2.49533">
        <ele>38</ele>
        <time>2015-11-11T01:35:56Z</time>
      </trkpt>
      <trkpt lat="48.71036" lon="2.49541">
        <ele>38</ele>
        <time>2015-11-11T01:37:56Z</time>
      </trkpt>
      <trkpt lat="48.71029" lon="2.49557">
        <ele>38</ele>
        <time>2015-11-11T01:39:56Z</time>
      </trkpt>
      <trkpt lat="48.71022" lon="2.49574">
        <ele>38</ele>
        <time>2015-11-11T01:41:56Z</time>
      </trkpt>
      <trkpt lat="48.71012" lon="2.49597">
        <ele>39</ele>
        <time>2015-11-11T01:43:56Z</time>
      </trkpt>
      <trkpt lat="48.71005" lon="2.49609">
        <ele>39</ele>
        <time>2015-11-11T01:45:56Z</time>
      </trkpt>
      <trkpt lat="48.70999" lon="2.49617">
        <ele>39</ele>
        <time>2015-11-11T01:47:56Z</time>
      </trkpt>
      <trkpt lat="48.70993" lon="2.49624">
        <ele>39</ele>
        <time>2015-11-11T01:49:56Z</time>
      </trkpt>
      <trkpt lat="48.70983" lon="2.49633">
        <ele>39</ele>
        <time>2015-11-11T01:51:56Z</time>
      </trkpt>
      <trkpt lat="48.70975" lon="2.49638">
        <ele>39</ele>
        <time>2015-11-11T01:53:56Z</time>
      </trkpt>
      <trkpt lat="48.70966" lon="2.49642">
        <ele>39</ele>
        <time>2015-11-11T01:55:56Z</time>
      </trkpt>
      <trkpt lat="48.7095" lon="2.49643">
        <ele>38</ele>
        <time>2015-11-11T01:57:56Z</time>
      </trkpt>
      <trkpt lat="48.70925" lon="2.49641">
        <ele>38</ele>
        <time>2015-11-11T01:59:56Z</time>
      </trkpt>
      <trkpt lat="48.70898" lon="2.49641">
        <ele>38</ele>
        <time>2015-11-11T02:01:56Z</time>
      </trkpt>
      <trkpt lat="48.70882" lon="2.49642">
        <ele>38</ele>
        <time>2015-11-11T02:03:56Z</time>
      </trkpt>
      <trkpt lat="48.7087" lon="2.4964">
        <ele>39</ele>
        <time>2015-11-11T02:05:56Z</time>
      </trkpt>
      <trkpt lat="48.7086" lon="2.49637">
        <ele>39</ele>
        <time>2015-11-11T02:07:56Z</time>
      </trkpt>
      <trkpt lat="48.70853" lon="2.49641">
        <ele>39</ele>
        <time>2015-11-11T02:09:56Z</time>
      </trkpt>
      <trkpt lat="48.70841" lon="2.49652">
        <ele>39</ele>
        <time>2015-11-11T02:11:56Z</time>
      </trkpt>
      <trkpt lat="48.70832" lon="2.49661">
        <ele>39</ele>
        <time>2015-11-11T02:13:56Z</time>
      </trkpt>
      <trkpt lat="48.70827" lon="2.49669">
        <ele>39</ele>
        <time>2015-11-11T02:15:56Z</time>
      </trkpt>
      <trkpt lat="48.70823" lon="2.49677">
        <ele>39</ele>
        <time>2015-11-11T02:17:56Z</time>
      </trkpt>
      <trkpt lat="48.70815" lon="2.49681">
        <ele>39</ele>
        <time>2015-11-11T02:19:56Z</time>
      </trkpt>
      <trkpt lat="48.70799" lon="2.49679">
        <ele>39</ele>
        <time>2015-11-11T02:21:56Z</time>
      </trkpt>
      <trkpt lat="48.70789" lon="2.49674">
        <ele>39</ele>
        <time>2015-11-11T02:23:56Z</time>
      </trkpt>
      <trkpt lat="48.70787" lon="2.49732">
        <ele>37</ele>
        <time>2015-11-11T02:25:56Z</time>
      </trkpt>
      <trkpt lat="48.70786" lon="2.49742">
        <ele>37</ele>
        <time>2015-11-11T02:27:56Z</time>
      </trkpt>
      <trkpt lat="48.70793" lon="2.49748">
        <ele>37</ele>
        <time>2015-11-11T02:29:56Z</time>
      </trkpt>
      <trkpt lat="48.70795" lon="2.49758">
        <ele>37</ele>
        <time>2015-11-11T02:31:56Z</time>
      </trkpt>
      <trkpt lat="48.7079" lon="2.49768">
        <ele>37</ele>
        <time>2015-11-11T02:33:56Z</time>
      </trkpt>
      <trkpt lat="48.70785" lon="2.49779">
        <ele>37</ele>
        <time>2015-11-11T02:35:56Z</time>
      </trkpt>
      <trkpt lat="48.70776" lon="2.49789">
        <ele>37</ele>
        <time>2015-11-11T02:37:56Z</time>
      </trkpt>
      <trkpt lat="48.70771" lon="2.49791">
        <ele>37</ele>
        <time>2015-11-11T02:39:56Z</time>
      </trkpt>
      <trkpt lat="48.70758" lon="2.49782">
        <ele>37</ele>
        <time>2015-11-11T02:41:56Z</time>
      </trkpt>
      <trkpt lat="48.70747" lon="2.49772">
        <ele>37</ele>
        <time>2015-11-11T02:43:56Z</time>
      </trkpt>
      <trkpt lat="48.70739" lon="2.49758">
        <ele>37</ele>
        <time>2015-11-11T02:45:56Z</time>
      </trkpt>
      <trkpt lat="48.70733" lon="2.49734">
        <ele>38</ele>
        <time>2015-11-11T02:47:56Z</time>
      </trkpt>
      <trkpt lat="48.70721" lon="2.49719">
        <ele>38</ele>
        <time>2015-11-11T02:49:56Z</time>
      </trkpt>
      <trkpt lat="48.70711" lon="2.4972">
        <ele>38</ele>
        <time>2015-11-11T02:51:56Z</time>
      </trkpt>
      <trkpt lat="48.70715" lon="2.49734">
        <ele>38</ele>
        <time>2015-11-11T02:53:56Z</time>
      </trkpt>
      <trkpt lat="48.70718" lon="2.49755">
        <ele>38</ele>
        <time>2015-11-11T02:55:56Z</time>
      </trkpt>
      <trkpt lat="48.70724" lon="2.49778">
        <ele>38</ele>
        <time>2015-11-11T02:57:56Z</time>
      </trkpt>
      <trkpt lat="48.7073" lon="2.49797">
        <ele>38</ele>
        <time>2015-11-11T02:59:56Z</time>
      </trkpt>
      <trkpt lat="48.70741" lon="2.49812">
        <ele>37</ele>
        <time>2015-11-11T03:01:56Z</time>
      </trkpt>
      <trkpt lat="48.7076" lon="2.49823">
        <ele>37</ele>
        <time>2015-11-11T03:03:56Z</time>
      </trkpt>
      <trkpt lat="48.70772" lon="2.49822">
        <ele>37</ele>
        <time>2015-11-11T03:05:56Z</time>
      </trkpt>
      <trkpt lat="48.70785" lon="2.49816">
        <ele>38</ele>
        <time>2015-11-11T03:07:56Z</time>
      </trkpt>
      <trkpt lat="48.70799" lon="2.49799">
        <ele>38</ele>
        <time>2015-11-11T03:09:56Z</time>
      </trkpt>
      <trkpt lat="48.70814" lon="2.49788">
        <ele>38</ele>
        <time>2015-11-11T03:11:56Z</time>
      </trkpt>
      <trkpt lat="48.70824" lon="2.49779">
        <ele>38</ele>
        <time>2015-11-11T03:13:56Z</time>
      </trkpt>
      <trkpt lat="48.70855" lon="2.49772">
        <ele>38</ele>
        <time>2015-11-11T03:15:56Z</time>
      </trkpt>
      <trkpt lat="48.7087" lon="2.49775">
        <ele>39</ele>
        <time>2015-11-11T03:17:56Z</time>
      </trkpt>
      <trkpt lat="48.70886" lon="2.49781">
        <ele>39</ele>
        <time>2015-11-11T03:19:56Z</time>
      </trkpt>
      <trkpt lat="48.70898" lon="2.49788">
        <ele>40</ele>
        <time>2015-11-11T03:21:56Z</time>
      </trkpt>
      <trkpt lat="48.70915" lon="2.49806">
        <ele>41</ele>
        <time>2015-11-11T03:23:56Z</time>
      </trkpt>
      <trkpt lat="48.70935" lon="2.49824">
        <ele>42</ele>
        <time>2015-11-11T03:25:56Z</time>
      </trkpt>
      <trkpt lat="48.70962" lon="2.4985">
        <ele>43</ele>
        <time>2015-11-11T03:27:56Z</time>
      </trkpt>
      <trkpt lat="48.7099" lon="2.49879">
        <ele>44</ele>
        <time>2015-11-11T03:29:56Z</time>
      </trkpt>
      <trkpt lat="48.71139" lon="2.4973">
        <ele>41</ele>
        <time>2015-11-11T03:31:56Z</time>
      </trkpt>
      <trkpt lat="48.71185" lon="2.49681">
        <ele>39</ele>
        <time>2015-11-11T03:33:56Z</time>
      </trkpt>
      <trkpt lat="48.71209" lon="2.49662">
        <ele>38</ele>
        <time>2015-11-11T03:35:56Z</time>
      </trkpt>
      <trkpt lat="48.71242" lon="2.49623">
        <ele>39</ele>
        <time>2015-11-11T03:37:56Z</time>
      </trkpt>
      <trkpt lat="48.71257" lon="2.49616">
        <ele>39</ele>
        <time>2015-11-11T03:39:56Z</time>
      </trkpt>
      <trkpt lat="48.71277" lon="2.49596">
        <ele>40</ele>
        <time>2015-11-11T03:41:56Z</time>
      </trkpt>
      <trkpt lat="48.71287" lon="2.49581">
        <ele>40</ele>
        <time>2015-11-11T03:43:56Z</time>
      </trkpt>
      <trkpt lat="48.71303" lon="2.49551">
        <ele>40</ele>
        <time>2015-11-11T03:45:56Z</time>
      </trkpt>
      <trkpt lat="48.71338" lon="2.49492">
        <ele>40</ele>
        <time>2015-11-11T03:47:56Z</time>
      </trkpt>
      <trkpt lat="48.71354" lon="2.49468">
        <ele>41</ele>
        <time>2015-11-11T03:49:56Z</time>
      </trkpt>
      <trkpt lat="48.71374" lon="2.49446">
        <ele>42</ele>
        <time>2015-11-11T03:51:56Z</time>
      </trkpt>
      <trkpt lat="48.71405" lon="2.49407">
        <ele>43</ele>
        <time>2015-11-11T03:53:56Z</time>
      </trkpt>
      <trkpt lat="48.71437" lon="2.49376">
        <ele>45</ele>
        <time>2015-11-11T03:55:56Z</time>
      </trkpt>
      <trkpt lat="48.71451" lon="2.49359">
        <ele>46</ele>
        <time>2015-11-11T03:57:56Z</time>
      </trkpt>
      <trkpt lat="48.71474" lon="2.49337">
        <ele>47</ele>
        <time>2015-11-11T03:59:56Z</time>
      </trkpt>
      <trkpt lat="48.71473" lon="2.49351">
        <ele>48</ele>
        <time>2015-11-11T04:01:56Z</time>
      </trkpt>
      <trkpt lat="48.7147" lon="2.49366">
        <ele>48</ele>
        <time>2015-11-11T04:03:56Z</time>
      </trkpt>
      <trkpt lat="48.71466" lon="2.49388">
        <ele>48</ele>
        <time>2015-11-11T04:05:56Z</time>
      </trkpt>
      <trkpt lat="48.71465" lon="2.49402">
        <ele>48</ele>
        <time>2015-11-11T04:07:56Z</time>
      </trkpt>
      <trkpt lat="48.71472" lon="2.4943">
        <ele>50</ele>
        <time>2015-11-11T04:09:56Z</time>
      </trkpt>
      <trkpt lat="48.71471" lon="2.49443">
        <ele>51</ele>
        <time>2015-11-11T04:11:56Z</time>
      </trkpt>
      <trkpt lat="48.71466" lon="2.49451">
        <ele>51</ele>
        <time>2015-11-11T04:13:56Z</time>
      </trkpt>
      <trkpt lat="48.7146" lon="2.49462">
        <ele>51</ele>
        <time>2015-11-11T04:15:56Z</time>
      </trkpt>
      <trkpt lat="48.71455" lon="2.49473">
        <ele>51</ele>
        <time>2015-11-11T04:17:56Z</time>
      </trkpt>
      <trkpt lat="48.71452" lon="2.49488">
        <ele>51</ele>
        <time>2015-11-11T04:19:56Z</time>
      </trkpt>
      <trkpt lat="48.71453" lon="2.49508">
        <ele>52</ele>
        <time>2015-11-11T04:21:56Z</time>
      </trkpt>
      <trkpt lat="48.71451" lon="2.49523">
        <ele>53</ele>
        <time>2015-11-11T04:23:56Z</time>
      </trkpt>
      <trkpt lat="48.71445" lon="2.49535">
        <ele>53</ele>
        <time>2015-11-11T04:25:56Z</time>
      </trkpt>
      <trkpt lat="48.71435" lon="2.49551">
        <ele>54</ele>
        <time>2015-11-11T04:27:56Z</time>
      </trkpt>
      <trkpt lat="48.71425" lon="2.49566">
        <ele>54</ele>
        <time>2015-11-11T04:29:56Z</time>
      </trkpt>
      <trkpt lat="48.71417" lon="2.4958">
        <ele>54</ele>
        <time>2015-11-11T04:31:56Z</time>
      </trkpt>
      <trkpt lat="48.71411" lon="2.49595">
        <ele>54</ele>
        <time>2015-11-11T04:33:56Z</time>
      </trkpt>
      <trkpt lat="48.71403" lon="2.49621">
        <ele>55</ele>
        <time>2015-11-11T04:35:56Z</time>
      </trkpt>
      <trkpt lat="48.71395" lon="2.49636">
        <ele>55</ele>
        <time>2015-11-11T04:37:56Z</time>
      </trkpt>
      <trkpt lat="48.71386" lon="2.49646">
        <ele>54</ele>
        <time>2015-11-11T04:39:56Z</time>
      </trkpt>
      <trkpt lat="48.71378" lon="2.49654">
        <ele>54</ele>
        <time>2015-11-11T04:41:56Z</time>
      </trkpt>
      <trkpt lat="48.71369" lon="2.49667">
        <ele>54</ele>
        <time>2015-11-11T04:43:56Z</time>
      </trkpt>
      <trkpt lat="48.71361" lon="2.49681">
        <ele>54</ele>
        <time>2015-11-11T04:45:56Z</time>
      </trkpt>
      <trkpt lat="48.71352" lon="2.49698">
        <ele>54</ele>
        <time>2015-11-11T04:47:56Z</time>
      </trkpt>
      <trkpt lat="48.71341" lon="2.49727">
        <ele>56</ele>
        <time>2015-11-11T04:49:56Z</time>
      </trkpt>
      <trkpt lat="48.71331" lon="2.49748">
        <ele>57</ele>
        <time>2015-11-11T04:51:56Z</time>
      </trkpt>
      <trkpt lat="48.71323" lon="2.49763">
        <ele>58</ele>
        <time>2015-11-11T04:53:56Z</time>
      </trkpt>
      <trkpt lat="48.71318" lon="2.49778">
        <ele>59</ele>
        <time>2015-11-11T04:55:56Z</time>
      </trkpt>
      <trkpt lat="48.71312" lon="2.49799">
        <ele>60</ele>
        <time>2015-11-11T04:57:56Z</time>
      </trkpt>
      <trkpt lat="48.71309" lon="2.49816">
        <ele>62</ele>
        <time>2015-11-11T04:59:56Z</time>
      </trkpt>
      <trkpt lat="48.7131" lon="2.49833">
        <ele>64</ele>
        <time>2015-11-11T05:01:56Z</time>
      </trkpt>
      <trkpt lat="48.71317" lon="2.49843">
        <ele>66</ele>
        <time>2015-11-11T05:03:56Z</time>
      </trkpt>
      <trkpt lat="48.7132" lon="2.4985">
        <ele>66</ele>
        <time>2015-11-11T05:05:56Z</time>
      </trkpt>
      <trkpt lat="48.71326" lon="2.4986">
        <ele>68</ele>
        <time>2015-11-11T05:07:56Z</time>
      </trkpt>
      <trkpt lat="48.71331" lon="2.49876">
        <ele>70</ele>
        <time>2015-11-11T05:09:56Z</time>
      </trkpt>
      <trkpt lat="48.71333" lon="2.49889">
        <ele>71</ele>
        <time>2015-11-11T05:11:56Z</time>
      </trkpt>
      <trkpt lat="48.7134" lon="2.4991">
        <ele>73</ele>
        <time>2015-11-11T05:13:56Z</time>
      </trkpt>
      <trkpt lat="48.71342" lon="2.49926">
        <ele>74</ele>
        <time>2015-11-11T05:15:56Z</time>
      </trkpt>
      <trkpt lat="48.71342" lon="2.49959">
        <ele>74</ele>
        <time>2015-11-11T05:17:56Z</time>
      </trkpt>
      <trkpt lat="48.71341" lon="2.49983">
        <ele>75</ele>
        <time>2015-11-11T05:19:56Z</time>
      </trkpt>
      <trkpt lat="48.71346" lon="2.49993">
        <ele>76</ele>
        <time>2015-11-11T05:21:56Z</time>
      </trkpt>
      <trkpt lat="48.7136" lon="2.50008">
        <ele>77</ele>
        <time>2015-11-11T05:23:56Z</time>
      </trkpt>
      <trkpt lat="48.71374" lon="2.5002">
        <ele>78</ele>
        <time>2015-11-11T05:25:56Z</time>
      </trkpt>
      <trkpt lat="48.71387" lon="2.5003">
        <ele>80</ele>
        <time>2015-11-11T05:27:56Z</time>
      </trkpt>
      <trkpt lat="48.71394" lon="2.50031">
        <ele>80</ele>
        <time>2015-11-11T05:29:56Z</time>
      </trkpt>
      <trkpt lat="48.71399" lon="2.50029">
        <ele>80</ele>
        <time>2015-11-11T05:31:56Z</time>
      </trkpt>
      <trkpt lat="48.71408" lon="2.50022">
        <ele>81</ele>
        <time>2015-11-11T05:33:56Z</time>
      </trkpt>
      <trkpt lat="48.71414" lon="2.50018">
        <ele>81</ele>
        <time>2015-11-11T05:35:56Z</time>
      </trkpt>
      <trkpt lat="48.71421" lon="2.50017">
        <ele>82</ele>
        <time>2015-11-11T05:37:56Z</time>
      </trkpt>
      <trkpt lat="48.71428" lon="2.50019">
        <ele>82</ele>
        <time>2015-11-11T05:39:56Z</time>
      </trkpt>
      <trkpt lat="48.71438" lon="2.50025">
        <ele>82</ele>
        <time>2015-11-11T05:41:56Z</time>
      </trkpt>
      <trkpt lat="48.71446" lon="2.50031">
        <ele>83</ele>
        <time>2015-11-11T05:43:56Z</time>
      </trkpt>
      <trkpt lat="48.71454" lon="2.50035">
        <ele>83</ele>
        <time>2015-11-11T05:45:56Z</time>
      </trkpt>
      <trkpt lat="48.71458" lon="2.50035">
        <ele>83</ele>
        <time>2015-11-11T05:47:56Z</time>
      </trkpt>
      <trkpt lat="48.71464" lon="2.50032">
        <ele>84</ele>
        <time>2015-11-11T05:49:56Z</time>
      </trkpt>
      <trkpt lat="48.71469" lon="2.50027">
        <ele>84</ele>
        <time>2015-11-11T05:51:56Z</time>
      </trkpt>
      <trkpt lat="48.71478" lon="2.50013">
        <ele>83</ele>
        <time>2015-11-11T05:53:56Z</time>
      </trkpt>
      <trkpt lat="48.71488" lon="2.49996">
        <ele>82</ele>
        <time>2015-11-11T05:55:56Z</time>
      </trkpt>
      <trkpt lat="48.71499" lon="2.49981">
        <ele>82</ele>
        <time>2015-11-11T05:57:56Z</time>
      </trkpt>
      <trkpt lat="48.7151" lon="2.49969">
        <ele>81</ele>
        <time>2015-11-11T05:59:56Z</time>
      </trkpt>
      <trkpt lat="48.71524" lon="2.49956">
        <ele>81</ele>
        <time>2015-11-11T06:01:56Z</time>
      </trkpt>
      <trkpt lat="48.71536" lon="2.49939">
        <ele>81</ele>
        <time>2015-11-11T06:03:56Z</time>
      </trkpt>
      <trkpt lat="48.7155" lon="2.49923">
        <ele>80</ele>
        <time>2015-11-11T06:05:56Z</time>
      </trkpt>
      <trkpt lat="48.71568" lon="2.49905">
        <ele>81</ele>
        <time>2015-11-11T06:07:56Z</time>
      </trkpt>
      <trkpt lat="48.71581" lon="2.49885">
        <ele>80</ele>
        <time>2015-11-11T06:09:56Z</time>
      </trkpt>
      <trkpt lat="48.71597" lon="2.49865">
        <ele>80</ele>
        <time>2015-11-11T06:11:56Z</time>
      </trkpt>
      <trkpt lat="48.71606" lon="2.49856">
        <ele>80</ele>
        <time>2015-11-11T06:13:56Z</time>
      </trkpt>
      <trkpt lat="48.71614" lon="2.49835">
        <ele>80</ele>
        <time>2015-11-11T06:15:56Z</time>
      </trkpt>
      <trkpt lat="48.71628" lon="2.49801">
        <ele>80</ele>
        <time>2015-11-11T06:17:56Z</time>
      </trkpt>
      <trkpt lat="48.71655" lon="2.49745">
        <ele>79</ele>
        <time>2015-11-11T06:19:56Z</time>
      </trkpt>
      <trkpt lat="48.71671" lon="2.49703">
        <ele>79</ele>
        <time>2015-11-11T06:21:56Z</time>
      </trkpt>
      <trkpt lat="48.71676" lon="2.49677">
        <ele>79</ele>
        <time>2015-11-11T06:23:56Z</time>
      </trkpt>
      <trkpt lat="48.71682" lon="2.49657">
        <ele>79</ele>
        <time>2015-11-11T06:25:56Z</time>
      </trkpt>
      <trkpt lat="48.71693" lon="2.4963">
        <ele>79</ele>
        <time>2015-11-11T06:27:56Z</time>
      </trkpt>
      <trkpt lat="48.71705" lon="2.4959">
        <ele>79</ele>
        <time>2015-11-11T06:29:56Z</time>
      </trkpt>
      <trkpt lat="48.71724" lon="2.49538">
        <ele>80</ele>
        <time>2015-11-11T06:31:56Z</time>
      </trkpt>
      <trkpt lat="48.71732" lon="2.49547">
        <ele>80</ele>
        <time>2015-11-11T06:33:56Z</time>
      </trkpt>
      <trkpt lat="48.71746" lon="2.49555">
        <ele>81</ele>
        <time>2015-11-11T06:35:56Z</time>
      </trkpt>
      <trkpt lat="48.71757" lon="2.49563">
        <ele>82</ele>
        <time>2015-11-11T06:37:56Z</time>
      </trkpt>
      <trkpt lat="48.71783" lon="2.49576">
        <ele>84</ele>
        <time>2015-11-11T06:39:56Z</time>
      </trkpt>
      <trkpt lat="48.71797" lon="2.49581">
        <ele>85</ele>
        <time>2015-11-11T06:41:56Z</time>
      </trkpt>
      <trkpt lat="48.71831" lon="2.49595">
        <ele>87</ele>
        <time>2015-11-11T06:43:56Z</time>
      </trkpt>
      <trkpt lat="48.71853" lon="2.49605">
        <ele>87</ele>
        <time>2015-11-11T06:45:56Z</time>
      </trkpt>
      <trkpt lat="48.7187" lon="2.49616">
        <ele>87</ele>
        <time>2015-11-11T06:47:56Z</time>
      </trkpt>
      <trkpt lat="48.71884" lon="2.49622">
        <ele>88</ele>
        <time>2015-11-11T06:49:56Z</time>
      </trkpt>
      <trkpt lat="48.71904" lon="2.49635">
        <ele>88</ele>
        <time>2015-11-11T06:51:56Z</time>
      </trkpt>
      <trkpt lat="48.7194" lon="2.49657">
        <ele>89</ele>
        <time>2015-11-11T06:53:56Z</time>
      </trkpt>
      <trkpt lat="48.71995" lon="2.4969">
        <ele>90</ele>
        <time>2015-11-11T06:55:56Z</time>
      </trkpt>
      <trkpt lat="48.72029" lon="2.49712">
        <ele>91</ele>
        <time>2015-11-11T06:57:56Z</time>
      </trkpt>
      <trkpt lat="48.72057" lon="2.49727">
        <ele>90</ele>
        <time>2015-11-11T06:59:56Z</time>
      </trkpt>
      <trkpt lat="48.72087" lon="2.49745">
        <ele>90</ele>
        <time>2015-11-11T07:01:56Z</time>
      </trkpt>
      <trkpt lat="48.72124" lon="2.49768">
        <ele>90</ele>
        <time>2015-11-11T07:03:56Z</time>
      </trkpt>
      <trkpt lat="48.72176" lon="2.49798">
        <ele>90</ele>
        <time>2015-11-11T07:05:56Z</time>
      </trkpt>
      <trkpt lat="48.72209" lon="2.49814">
        <ele>90</ele>
        <time>2015-11-11T07:07:56Z</time>
      </trkpt>
      <trkpt lat="48.72209" lon="2.49968">
        <ele>93</ele>
        <time>2015-11-11T07:09:56Z</time>
      </trkpt>
      <trkpt lat="48.72206" lon="2.49984">
        <ele>93</ele>
        <time>2015-11-11T07:11:56Z</time>
      </trkpt>
      <trkpt lat="48.72208" lon="2.50012">
        <ele>94</ele>
        <time>2015-11-11T07:13:56Z</time>
      </trkpt>
      <trkpt lat="48.72211" lon="2.50086">
        <ele>95</ele>
        <time>2015-11-11T07:15:56Z</time>
      </trkpt>
      <trkpt lat="48.72211" lon="2.50164">
        <ele>96</ele>
        <time>2015-11-11T07:17:56Z</time>
      </trkpt>
      <trkpt lat="48.7221" lon="2.50204">
        <ele>97</ele>
        <time>2015-11-11T07:19:56Z</time>
      </trkpt>
      <trkpt lat="48.7221" lon="2.50284">
        <ele>99</ele>
        <time>2015-11-11T07:21:56Z</time>
      </trkpt>
      <trkpt lat="48.72209" lon="2.50334">
        <ele>100</ele>
        <time>2015-11-11T07:23:56Z</time>
      </trkpt>
      <trkpt lat="48.7221" lon="2.50406">
        <ele>102</ele>
        <time>2015-11-11T07:25:56Z</time>
      </trkpt>
      <trkpt lat="48.7224" lon="2.50402">
        <ele>103</ele>
        <time>2015-11-11T07:27:56Z</time>
      </trkpt>
      <trkpt lat="48.72265" lon="2.50403">
        <ele>103</ele>
        <time>2015-11-11T07:29:56Z</time>
      </trkpt>
      <trkpt lat="48.72309" lon="2.504">
        <ele>103</ele>
        <time>2015-11-11T07:31:56Z</time>
      </trkpt>
      <trkpt lat="48.72342" lon="2.50397">
        <ele>103</ele>
        <time>2015-11-11T07:33:56Z</time>
      </trkpt>
      <trkpt lat="48.72377" lon="2.50395">
        <ele>105</ele>
        <time>2015-11-11T07:35:56Z</time>
      </trkpt>
      <trkpt lat="48.7242" lon="2.50391">
        <ele>107</ele>
        <time>2015-11-11T07:37:56Z</time>
      </trkpt>
      <trkpt lat="48.72498" lon="2.50386">
        <ele>109</ele>
        <time>2015-11-11T07:39:56Z</time>
      </trkpt>
      <trkpt lat="48.72531" lon="2.50385">
        <ele>108</ele>
        <time>2015-11-11T07:41:56Z</time>
      </trkpt>
      <trkpt lat="48.72553" lon="2.50383">
        <ele>108</ele>
        <time>2015-11-11T07:43:56Z</time>
      </trkpt>
      <trkpt lat="48.72573" lon="2.50383">
        <ele>108</ele>
        <time>2015-11-11T07:45:56Z</time>
      </trkpt>
      <trkpt lat="48.72593" lon="2.50385">
        <ele>108</ele>
        <time>2015-11-11T07:47:56Z</time>
      </trkpt>
      <trkpt lat="48.72612" lon="2.50382">
        <ele>109</ele>
        <time>2015-11-11T07:49:56Z</time>
      </trkpt>
      <trkpt lat="48.72642" lon="2.50378">
        <ele>109</ele>
        <time>2015-11-11T07:51:56Z</time>
      </trkpt>
      <trkpt lat="48.7272" lon="2.5037">
        <ele>105</ele>
        <time>2015-11-11T07:53:56Z</time>
      </trkpt>
      <trkpt lat="48.72778" lon="2.50366">
        <ele>102</ele>
        <time>2015-11-11T07:55:56Z</time>
      </trkpt>
      <trkpt lat="48.72816" lon="2.50362">
        <ele>100</ele>
        <time>2015-11-11T07:57:56Z</time>
      </trkpt>
      <trkpt lat="48.72967" lon="2.50352">
        <ele>94</ele>
        <time>2015-11-11T07:59:56Z</time>
      </trkpt>
      <trkpt lat="48.72986" lon="2.5035">
        <ele>94</ele>
        <time>2015-11-11T08:01:56Z</time>
      </trkpt>
      <trkpt lat="48.72995" lon="2.50413">
        <ele>96</ele>
        <time>2015-11-11T08:03:56Z</time>
      </trkpt>
      <trkpt lat="48.73005" lon="2.50513">
        <ele>100</ele>
        <time>2015-11-11T08:05:56Z</time>
      </trkpt>
      <trkpt lat="48.73042" lon="2.50858">
        <ele>100</ele>
        <time>2015-11-11T08:07:56Z</time>
      </trkpt>
      <trkpt lat="48.73085" lon="2.50852">
        <ele>99</ele>
        <time>2015-11-11T08:09:56Z</time>
      </trkpt>
      <trkpt lat="48.73112" lon="2.50849">
        <ele>98</ele>
        <time>2015-11-11T08:11:56Z</time>
      </trkpt>
      <trkpt lat="48.73133" lon="2.50852">
        <ele>97</ele>
        <time>2015-11-11T08:13:56Z</time>
      </trkpt>
      <trkpt lat="48.73186" lon="2.50855">
        <ele>95</ele>
        <time>2015-11-11T08:15:56Z</time>
      </trkpt>
      <trkpt lat="48.73207" lon="2.50864">
        <ele>95</ele>
        <time>2015-11-11T08:17:56Z</time>
      </trkpt>
    </trkseg>
  </trk>
</gpx>